Terminal Aerodrome Forecast
Issued by NWS

Home | Current Version | Previous Version | Graphics & Text | Print | Product List | Glossary On
Versions: 1 2 3 4 5 6 7 8 9 10 11 12 13 14 15 16 17 18 19 20 21 22 23 24 25 26
000
FTUS43 KLOT 011142
TAFMDW
TAF
KMDW 011142Z 0112/0212 03011KT 3SM BR OVC003
      TEMPO 0112/0114 1SM BR
     FM011400 33010KT 3SM BR VCSH SCT003 OVC005
     FM011600 30013G20KT P6SM VCSH OVC015
     FM012000 31019G28KT 5SM -RASN BR OVC018
     FM020100 31016G25KT P6SM BKN025
     FM020500 31010KT P6SM BKN050=

USA.gov is the U.S. government's official web portal to all federal, state and local government web resources and services.